sensor_id;sensor_type;location;lat;lon;timestamp;P1;P2;P0
56688;PMS5003;42565;53.342;-1.534;2023-04-06T00:00:06;7;7;
56688;PMS5003;42565;53.342;-1.534;2023-04-06T00:02:34;8;8;
56688;PMS5003;42565;53.342;-1.534;2023-04-06T00:05:01;11;8;
56688;PMS5003;42565;53.342;-1.534;2023-04-06T00:07:29;10;10;
56688;PMS5003;42565;53.342;-1.534;2023-04-06T00:09:56;8;8;
56688;PMS5003;42565;53.342;-1.534;2023-04-06T00:12:23;9;8;
56688;PMS5003;42565;53.342;-1.534;2023-04-06T00:14:50;7;6;
56688;PMS5003;42565;53.342;-1.534;2023-04-06T00:17:18;7;6;
56688;PMS5003;42565;53.342;-1.534;2023-04-06T00:19:45;7;7;
56688;PMS5003;42565;53.342;-1.534;2023-04-06T00:22:11;7;7;
56688;PMS5003;42565;53.342;-1.534;2023-04-06T00:24:39;8;7;
56688;PMS5003;42565;53.342;-1.534;2023-04-06T00:27:06;10;8;
56688;PMS5003;42565;53.342;-1.534;2023-04-06T00:29:32;8;7;
56688;PMS5003;42565;53.342;-1.534;2023-04-06T00:31:59;8;8;
56688;PMS5003;42565;53.342;-1.534;2023-04-06T00:34:26;9;8;
56688;PMS5003;42565;53.342;-1.534;2023-04-06T00:36:52;6;6;
56688;PMS5003;42565;53.342;-1.534;2023-04-06T00:39:19;9;8;
56688;PMS5003;42565;53.342;-1.534;2023-04-06T00:41:48;7;6;
56688;PMS5003;42565;53.342;-1.534;2023-04-06T00:44:18;9;8;
56688;PMS5003;42565;53.342;-1.534;2023-04-06T00:46:45;9;8;
56688;PMS5003;42565;53.342;-1.534;2023-04-06T00:49:12;10;8;
56688;PMS5003;42565;53.342;-1.534;2023-04-06T00:51:40;8;8;
56688;PMS5003;42565;53.342;-1.534;2023-04-06T00:54:06;8;8;
56688;PMS5003;42565;53.342;-1.534;2023-04-06T00:56:34;8;7;
56688;PMS5003;42565;53.342;-1.534;2023-04-06T00:59:02;9;9;
56688;PMS5003;42565;53.342;-1.534;2023-04-06T01:01:29;8;8;
56688;PMS5003;42565;53.342;-1.534;2023-04-06T01:03:57;10;10;
56688;PMS5003;42565;53.342;-1.534;2023-04-06T01:06:24;11;11;
56688;PMS5003;42565;53.342;-1.534;2023-04-06T01:08:51;11;10;
56688;PMS5003;42565;53.342;-1.534;2023-04-06T01:11:19;10;10;
56688;PMS5003;42565;53.342;-1.534;2023-04-06T01:13:45;11;11;
56688;PMS5003;42565;53.342;-1.534;2023-04-06T01:16:12;13;12;
56688;PMS5003;42565;53.342;-1.534;2023-04-06T01:18:40;9;9;
56688;PMS5003;42565;53.342;-1.534;2023-04-06T01:21:07;14;13;
56688;PMS5003;42565;53.342;-1.534;2023-04-06T01:23:33;8;8;
56688;PMS5003;42565;53.342;-1.534;2023-04-06T01:26:01;13;11;
56688;PMS5003;42565;53.342;-1.534;2023-04-06T01:28:28;10;10;
56688;PMS5003;42565;53.342;-1.534;2023-04-06T01:30:55;8;7;
56688;PMS5003;42565;53.342;-1.534;2023-04-06T01:33:22;11;11;
56688;PMS5003;42565;53.342;-1.534;2023-04-06T01:35:48;10;10;
56688;PMS5003;42565;53.342;-1.534;2023-04-06T01:38:16;10;10;
56688;PMS5003;42565;53.342;-1.534;2023-04-06T01:40:43;10;10;
56688;PMS5003;42565;53.342;-1.534;2023-04-06T01:43:11;11;11;
56688;PMS5003;42565;53.342;-1.534;2023-04-06T01:45:39;8;8;
56688;PMS5003;42565;53.342;-1.534;2023-04-06T01:48:06;8;8;
56688;PMS5003;42565;53.342;-1.534;2023-04-06T01:50:33;8;7;
56688;PMS5003;42565;53.342;-1.534;2023-04-06T01:53:00;10;9;
56688;PMS5003;42565;53.342;-1.534;2023-04-06T01:55:28;9;9;
56688;PMS5003;42565;53.342;-1.534;2023-04-06T01:57:54;11;8;
56688;PMS5003;42565;53.342;-1.534;2023-04-06T02:00:22;8;7;
56688;PMS5003;42565;53.342;-1.534;2023-04-06T02:02:49;8;7;
56688;PMS5003;42565;53.342;-1.534;2023-04-06T02:05:15;11;9;
56688;PMS5003;42565;53.342;-1.534;2023-04-06T02:07:43;7;7;
56688;PMS5003;42565;53.342;-1.534;2023-04-06T02:10:11;9;9;
56688;PMS5003;42565;53.342;-1.534;2023-04-06T02:12:39;9;8;
56688;PMS5003;42565;53.342;-1.534;2023-04-06T02:15:07;7;6;
56688;PMS5003;42565;53.342;-1.534;2023-04-06T02:17:35;9;8;
56688;PMS5003;42565;53.342;-1.534;2023-04-06T02:20:01;7;7;
56688;PMS5003;42565;53.342;-1.534;2023-04-06T02:22:29;7;7;
56688;PMS5003;42565;53.342;-1.534;2023-04-06T02:24:56;5;4;
56688;PMS5003;42565;53.342;-1.534;2023-04-06T02:27:22;4;3;
56688;PMS5003;42565;53.342;-1.534;2023-04-06T02:29:50;3;3;
56688;PMS5003;42565;53.342;-1.534;2023-04-06T02:32:17;5;5;
56688;PMS5003;42565;53.342;-1.534;2023-04-06T02:34:43;5;5;
56688;PMS5003;42565;53.342;-1.534;2023-04-06T02:37:11;4;4;
56688;PMS5003;42565;53.342;-1.534;2023-04-06T02:39:38;5;5;
56688;PMS5003;42565;53.342;-1.534;2023-04-06T02:42:05;5;4;
56688;PMS5003;42565;53.342;-1.534;2023-04-06T02:44:32;6;6;
56688;PMS5003;42565;53.342;-1.534;2023-04-06T02:46:59;6;6;
56688;PMS5003;42565;53.342;-1.534;2023-04-06T02:49:26;8;5;
56688;PMS5003;42565;53.342;-1.534;2023-04-06T02:51:53;4;3;
56688;PMS5003;42565;53.342;-1.534;2023-04-06T02:54:19;6;6;
56688;PMS5003;42565;53.342;-1.534;2023-04-06T02:56:46;8;7;
56688;PMS5003;42565;53.342;-1.534;2023-04-06T02:59:13;6;6;
56688;PMS5003;42565;53.342;-1.534;2023-04-06T03:01:40;5;5;
56688;PMS5003;42565;53.342;-1.534;2023-04-06T03:04:06;4;4;
56688;PMS5003;42565;53.342;-1.534;2023-04-06T03:06:33;6;5;
56688;PMS5003;42565;53.342;-1.534;2023-04-06T03:09:00;5;5;
56688;PMS5003;42565;53.342;-1.534;2023-04-06T03:11:27;3;3;
56688;PMS5003;42565;53.342;-1.534;2023-04-06T03:13:55;5;4;
56688;PMS5003;42565;53.342;-1.534;2023-04-06T03:16:22;2;2;
56688;PMS5003;42565;53.342;-1.534;2023-04-06T03:18:48;3;3;
56688;PMS5003;42565;53.342;-1.534;2023-04-06T03:21:15;3;2;
56688;PMS5003;42565;53.342;-1.534;2023-04-06T03:23:42;4;4;
56688;PMS5003;42565;53.342;-1.534;2023-04-06T03:26:09;2;2;
56688;PMS5003;42565;53.342;-1.534;2023-04-06T03:28:37;2;2;
56688;PMS5003;42565;53.342;-1.534;2023-04-06T03:31:03;4;3;
56688;PMS5003;42565;53.342;-1.534;2023-04-06T03:33:30;4;4;
56688;PMS5003;42565;53.342;-1.534;2023-04-06T03:35:57;3;3;
56688;PMS5003;42565;53.342;-1.534;2023-04-06T03:38:23;5;5;
56688;PMS5003;42565;53.342;-1.534;2023-04-06T03:40:50;5;5;
56688;PMS5003;42565;53.342;-1.534;2023-04-06T03:43:17;5;5;
56688;PMS5003;42565;53.342;-1.534;2023-04-06T03:45:45;6;5;
56688;PMS5003;42565;53.342;-1.534;2023-04-06T03:48:11;7;6;
56688;PMS5003;42565;53.342;-1.534;2023-04-06T03:50:39;8;7;
56688;PMS5003;42565;53.342;-1.534;2023-04-06T03:53:05;7;6;
56688;PMS5003;42565;53.342;-1.534;2023-04-06T03:55:32;7;6;
56688;PMS5003;42565;53.342;-1.534;2023-04-06T03:57:59;7;7;
56688;PMS5003;42565;53.342;-1.534;2023-04-06T04:00:26;9;7;
56688;PMS5003;42565;53.342;-1.534;2023-04-06T04:02:53;9;9;
56688;PMS5003;42565;53.342;-1.534;2023-04-06T04:05:20;11;10;
56688;PMS5003;42565;53.342;-1.534;2023-04-06T04:07:47;12;11;
56688;PMS5003;42565;53.342;-1.534;2023-04-06T04:10:15;12;11;
56688;PMS5003;42565;53.342;-1.534;2023-04-06T04:12:42;11;10;
56688;PMS5003;42565;53.342;-1.534;2023-04-06T04:15:10;13;12;
56688;PMS5003;42565;53.342;-1.534;2023-04-06T04:17:37;14;13;
56688;PMS5003;42565;53.342;-1.534;2023-04-06T04:20:05;12;11;
56688;PMS5003;42565;53.342;-1.534;2023-04-06T04:22:33;12;11;
56688;PMS5003;42565;53.342;-1.534;2023-04-06T04:24:59;12;12;
56688;PMS5003;42565;53.342;-1.534;2023-04-06T04:27:26;13;12;
56688;PMS5003;42565;53.342;-1.534;2023-04-06T04:29:54;12;11;
56688;PMS5003;42565;53.342;-1.534;2023-04-06T04:32:21;15;15;
56688;PMS5003;42565;53.342;-1.534;2023-04-06T04:34:47;16;15;
56688;PMS5003;42565;53.342;-1.534;2023-04-06T04:37:14;16;16;
56688;PMS5003;42565;53.342;-1.534;2023-04-06T04:39:41;17;16;
56688;PMS5003;42565;53.342;-1.534;2023-04-06T04:42:09;16;14;
56688;PMS5003;42565;53.342;-1.534;2023-04-06T04:44:36;17;16;
56688;PMS5003;42565;53.342;-1.534;2023-04-06T04:47:04;13;11;
56688;PMS5003;42565;53.342;-1.534;2023-04-06T04:49:31;10;10;
56688;PMS5003;42565;53.342;-1.534;2023-04-06T04:51:58;11;9;
56688;PMS5003;42565;53.342;-1.534;2023-04-06T04:54:25;10;10;
56688;PMS5003;42565;53.342;-1.534;2023-04-06T04:56:52;9;9;
56688;PMS5003;42565;53.342;-1.534;2023-04-06T04:59:19;9;9;
56688;PMS5003;42565;53.342;-1.534;2023-04-06T05:01:46;10;9;
56688;PMS5003;42565;53.342;-1.534;2023-04-06T05:04:12;9;8;
56688;PMS5003;42565;53.342;-1.534;2023-04-06T05:06:40;9;9;
56688;PMS5003;42565;53.342;-1.534;2023-04-06T05:09:06;9;8;
56688;PMS5003;42565;53.342;-1.534;2023-04-06T05:11:34;8;7;
56688;PMS5003;42565;53.342;-1.534;2023-04-06T05:14:00;7;7;
56688;PMS5003;42565;53.342;-1.534;2023-04-06T05:16:28;8;7;
56688;PMS5003;42565;53.342;-1.534;2023-04-06T05:18:54;7;7;
56688;PMS5003;42565;53.342;-1.534;2023-04-06T05:21:22;10;9;
56688;PMS5003;42565;53.342;-1.534;2023-04-06T05:23:49;7;7;
56688;PMS5003;42565;53.342;-1.534;2023-04-06T05:26:15;10;10;
56688;PMS5003;42565;53.342;-1.534;2023-04-06T05:28:42;9;8;
56688;PMS5003;42565;53.342;-1.534;2023-04-06T05:31:10;9;7;
56688;PMS5003;42565;53.342;-1.534;2023-04-06T05:33:37;12;10;
56688;PMS5003;42565;53.342;-1.534;2023-04-06T05:36:05;12;9;
56688;PMS5003;42565;53.342;-1.534;2023-04-06T05:38:32;9;9;
56688;PMS5003;42565;53.342;-1.534;2023-04-06T05:41:00;10;10;
56688;PMS5003;42565;53.342;-1.534;2023-04-06T05:43:27;11;11;
56688;PMS5003;42565;53.342;-1.534;2023-04-06T05:45:55;14;12;
56688;PMS5003;42565;53.342;-1.534;2023-04-06T05:48:21;10;10;
56688;PMS5003;42565;53.342;-1.534;2023-04-06T05:50:48;11;10;
56688;PMS5003;42565;53.342;-1.534;2023-04-06T05:53:16;8;8;
56688;PMS5003;42565;53.342;-1.534;2023-04-06T05:55:43;11;11;
56688;PMS5003;42565;53.342;-1.534;2023-04-06T05:58:10;8;8;
56688;PMS5003;42565;53.342;-1.534;2023-04-06T06:00:38;7;7;
56688;PMS5003;42565;53.342;-1.534;2023-04-06T06:03:06;7;7;
56688;PMS5003;42565;53.342;-1.534;2023-04-06T06:05:33;6;6;
56688;PMS5003;42565;53.342;-1.534;2023-04-06T06:08:00;5;5;
56688;PMS5003;42565;53.342;-1.534;2023-04-06T06:10:28;6;6;
56688;PMS5003;42565;53.342;-1.534;2023-04-06T06:12:55;4;4;
56688;PMS5003;42565;53.342;-1.534;2023-04-06T06:15:22;4;4;
56688;PMS5003;42565;53.342;-1.534;2023-04-06T06:17:49;4;4;
56688;PMS5003;42565;53.342;-1.534;2023-04-06T06:20:16;6;5;
56688;PMS5003;42565;53.342;-1.534;2023-04-06T06:22:43;3;3;
56688;PMS5003;42565;53.342;-1.534;2023-04-06T06:25:11;1;1;
56688;PMS5003;42565;53.342;-1.534;2023-04-06T06:27:39;2;2;
56688;PMS5003;42565;53.342;-1.534;2023-04-06T06:30:06;5;5;
56688;PMS5003;42565;53.342;-1.534;2023-04-06T06:32:35;6;5;
56688;PMS5003;42565;53.342;-1.534;2023-04-06T06:35:02;4;4;
56688;PMS5003;42565;53.342;-1.534;2023-04-06T06:37:29;3;3;
56688;PMS5003;42565;53.342;-1.534;2023-04-06T06:39:57;4;4;
56688;PMS5003;42565;53.342;-1.534;2023-04-06T06:42:25;4;4;
56688;PMS5003;42565;53.342;-1.534;2023-04-06T06:44:52;6;6;
56688;PMS5003;42565;53.342;-1.534;2023-04-06T06:47:20;5;5;
56688;PMS5003;42565;53.342;-1.534;2023-04-06T06:49:48;6;6;
56688;PMS5003;42565;53.342;-1.534;2023-04-06T06:52:15;5;5;
56688;PMS5003;42565;53.342;-1.534;2023-04-06T06:54:42;7;7;
56688;PMS5003;42565;53.342;-1.534;2023-04-06T06:57:10;5;5;
56688;PMS5003;42565;53.342;-1.534;2023-04-06T06:59:37;5;4;
56688;PMS5003;42565;53.342;-1.534;2023-04-06T07:02:04;5;5;
56688;PMS5003;42565;53.342;-1.534;2023-04-06T07:04:31;6;6;
56688;PMS5003;42565;53.342;-1.534;2023-04-06T07:06:58;5;5;
56688;PMS5003;42565;53.342;-1.534;2023-04-06T07:09:25;6;5;
56688;PMS5003;42565;53.342;-1.534;2023-04-06T07:11:52;5;4;
56688;PMS5003;42565;53.342;-1.534;2023-04-06T07:14:20;4;4;
56688;PMS5003;42565;53.342;-1.534;2023-04-06T07:16:47;4;4;
56688;PMS5003;42565;53.342;-1.534;2023-04-06T07:19:14;2;2;
56688;PMS5003;42565;53.342;-1.534;2023-04-06T07:21:41;3;3;
56688;PMS5003;42565;53.342;-1.534;2023-04-06T07:24:09;5;4;
56688;PMS5003;42565;53.342;-1.534;2023-04-06T07:26:35;5;5;
56688;PMS5003;42565;53.342;-1.534;2023-04-06T07:29:03;9;9;
56688;PMS5003;42565;53.342;-1.534;2023-04-06T07:31:30;6;6;
56688;PMS5003;42565;53.342;-1.534;2023-04-06T07:33:58;7;7;
56688;PMS5003;42565;53.342;-1.534;2023-04-06T07:36:26;7;5;
56688;PMS5003;42565;53.342;-1.534;2023-04-06T07:38:53;6;6;
56688;PMS5003;42565;53.342;-1.534;2023-04-06T07:41:21;5;5;
56688;PMS5003;42565;53.342;-1.534;2023-04-06T07:43:47;5;4;
56688;PMS5003;42565;53.342;-1.534;2023-04-06T07:46:14;7;5;
56688;PMS5003;42565;53.342;-1.534;2023-04-06T07:48:41;4;3;
56688;PMS5003;42565;53.342;-1.534;2023-04-06T07:51:07;5;3;
56688;PMS5003;42565;53.342;-1.534;2023-04-06T07:53:35;2;2;
56688;PMS5003;42565;53.342;-1.534;2023-04-06T07:56:02;4;3;
56688;PMS5003;42565;53.342;-1.534;2023-04-06T07:58:29;3;3;
56688;PMS5003;42565;53.342;-1.534;2023-04-06T08:00:56;3;3;
56688;PMS5003;42565;53.342;-1.534;2023-04-06T08:03:24;3;3;
56688;PMS5003;42565;53.342;-1.534;2023-04-06T08:05:50;3;2;
56688;PMS5003;42565;53.342;-1.534;2023-04-06T08:08:18;4;3;
56688;PMS5003;42565;53.342;-1.534;2023-04-06T08:10:45;3;3;
56688;PMS5003;42565;53.342;-1.534;2023-04-06T08:13:12;3;2;
56688;PMS5003;42565;53.342;-1.534;2023-04-06T08:15:39;3;3;
56688;PMS5003;42565;53.342;-1.534;2023-04-06T08:18:07;3;3;
56688;PMS5003;42565;53.342;-1.534;2023-04-06T08:20:35;2;2;
56688;PMS5003;42565;53.342;-1.534;2023-04-06T08:23:02;4;3;
56688;PMS5003;42565;53.342;-1.534;2023-04-06T08:25:30;2;2;
56688;PMS5003;42565;53.342;-1.534;2023-04-06T08:27:57;4;3;
56688;PMS5003;42565;53.342;-1.534;2023-04-06T08:30:25;3;3;
56688;PMS5003;42565;53.342;-1.534;2023-04-06T08:32:53;3;3;
56688;PMS5003;42565;53.342;-1.534;2023-04-06T08:35:20;3;3;
56688;PMS5003;42565;53.342;-1.534;2023-04-06T08:37:48;1;1;
56688;PMS5003;42565;53.342;-1.534;2023-04-06T08:40:15;3;3;
56688;PMS5003;42565;53.342;-1.534;2023-04-06T08:42:44;3;3;
56688;PMS5003;42565;53.342;-1.534;2023-04-06T08:45:16;4;4;
56688;PMS5003;42565;53.342;-1.534;2023-04-06T08:47:43;3;3;
56688;PMS5003;42565;53.342;-1.534;2023-04-06T08:50:12;3;3;
56688;PMS5003;42565;53.342;-1.534;2023-04-06T08:52:39;4;4;
56688;PMS5003;42565;53.342;-1.534;2023-04-06T08:55:09;4;3;
56688;PMS5003;42565;53.342;-1.534;2023-04-06T08:57:37;4;4;
56688;PMS5003;42565;53.342;-1.534;2023-04-06T09:00:05;3;3;
56688;PMS5003;42565;53.342;-1.534;2023-04-06T09:02:37;1;1;
56688;PMS5003;42565;53.342;-1.534;2023-04-06T09:05:06;4;3;
56688;PMS5003;42565;53.342;-1.534;2023-04-06T09:07:35;4;1;
56688;PMS5003;42565;53.342;-1.534;2023-04-06T09:10:03;3;2;
56688;PMS5003;42565;53.342;-1.534;2023-04-06T09:12:31;4;2;
56688;PMS5003;42565;53.342;-1.534;2023-04-06T09:15:00;2;2;
56688;PMS5003;42565;53.342;-1.534;2023-04-06T09:17:28;2;2;
56688;PMS5003;42565;53.342;-1.534;2023-04-06T09:19:56;6;3;
56688;PMS5003;42565;53.342;-1.534;2023-04-06T09:22:24;4;3;
56688;PMS5003;42565;53.342;-1.534;2023-04-06T09:24:52;2;2;
56688;PMS5003;42565;53.342;-1.534;2023-04-06T09:27:29;2;2;
56688;PMS5003;42565;53.342;-1.534;2023-04-06T09:30:02;2;1;
56688;PMS5003;42565;53.342;-1.534;2023-04-06T09:32:31;4;3;
56688;PMS5003;42565;53.342;-1.534;2023-04-06T09:35:07;4;2;
56688;PMS5003;42565;53.342;-1.534;2023-04-06T09:37:36;3;3;
56688;PMS5003;42565;53.342;-1.534;2023-04-06T09:40:04;3;3;
56688;PMS5003;42565;53.342;-1.534;2023-04-06T09:42:33;4;2;
56688;PMS5003;42565;53.342;-1.534;2023-04-06T09:45:00;4;3;
56688;PMS5003;42565;53.342;-1.534;2023-04-06T09:47:28;3;3;
56688;PMS5003;42565;53.342;-1.534;2023-04-06T09:49:56;2;2;
56688;PMS5003;42565;53.342;-1.534;2023-04-06T09:52:26;2;2;
56688;PMS5003;42565;53.342;-1.534;2023-04-06T09:54:58;3;2;
56688;PMS5003;42565;53.342;-1.534;2023-04-06T09:57:29;3;2;
56688;PMS5003;42565;53.342;-1.534;2023-04-06T10:00:03;1;0;
56688;PMS5003;42565;53.342;-1.534;2023-04-06T10:02:32;3;0;
56688;PMS5003;42565;53.342;-1.534;2023-04-06T10:05:08;1;1;
56688;PMS5003;42565;53.342;-1.534;2023-04-06T10:07:39;2;2;
56688;PMS5003;42565;53.342;-1.534;2023-04-06T10:10:08;2;2;
56688;PMS5003;42565;53.342;-1.534;2023-04-06T10:12:38;4;3;
56688;PMS5003;42565;53.342;-1.534;2023-04-06T10:15:06;3;2;
56688;PMS5003;42565;53.342;-1.534;2023-04-06T10:17:34;1;1;
56688;PMS5003;42565;53.342;-1.534;2023-04-06T10:20:03;2;2;
56688;PMS5003;42565;53.342;-1.534;2023-04-06T10:22:36;2;1;
56688;PMS5003;42565;53.342;-1.534;2023-04-06T10:25:09;2;1;
56688;PMS5003;42565;53.342;-1.534;2023-04-06T10:27:35;1;1;
56688;PMS5003;42565;53.342;-1.534;2023-04-06T10:30:04;3;2;
56688;PMS5003;42565;53.342;-1.534;2023-04-06T10:32:33;0;0;
56688;PMS5003;42565;53.342;-1.534;2023-04-06T10:35:05;1;1;
56688;PMS5003;42565;53.342;-1.534;2023-04-06T10:37:45;2;1;
56688;PMS5003;42565;53.342;-1.534;2023-04-06T10:40:18;2;2;
56688;PMS5003;42565;53.342;-1.534;2023-04-06T10:42:46;1;1;
56688;PMS5003;42565;53.342;-1.534;2023-04-06T10:45:21;1;1;
56688;PMS5003;42565;53.342;-1.534;2023-04-06T10:47:50;2;2;
56688;PMS5003;42565;53.342;-1.534;2023-04-06T10:50:20;3;1;
56688;PMS5003;42565;53.342;-1.534;2023-04-06T10:52:58;3;1;
56688;PMS5003;42565;53.342;-1.534;2023-04-06T10:55:26;3;2;
56688;PMS5003;42565;53.342;-1.534;2023-04-06T10:57:54;1;1;
56688;PMS5003;42565;53.342;-1.534;2023-04-06T11:00:22;2;2;
56688;PMS5003;42565;53.342;-1.534;2023-04-06T11:02:50;3;2;
56688;PMS5003;42565;53.342;-1.534;2023-04-06T11:05:17;2;1;
56688;PMS5003;42565;53.342;-1.534;2023-04-06T11:07:45;2;1;
56688;PMS5003;42565;53.342;-1.534;2023-04-06T11:10:20;1;1;
56688;PMS5003;42565;53.342;-1.534;2023-04-06T11:12:51;1;1;
56688;PMS5003;42565;53.342;-1.534;2023-04-06T11:15:20;2;1;
56688;PMS5003;42565;53.342;-1.534;2023-04-06T11:17:47;1;1;
56688;PMS5003;42565;53.342;-1.534;2023-04-06T11:20:15;1;0;
56688;PMS5003;42565;53.342;-1.534;2023-04-06T11:22:49;1;0;
56688;PMS5003;42565;53.342;-1.534;2023-04-06T11:25:16;1;1;
56688;PMS5003;42565;53.342;-1.534;2023-04-06T11:27:44;1;0;
56688;PMS5003;42565;53.342;-1.534;2023-04-06T11:30:13;1;0;
56688;PMS5003;42565;53.342;-1.534;2023-04-06T11:32:41;2;2;
56688;PMS5003;42565;53.342;-1.534;2023-04-06T11:35:11;2;2;
56688;PMS5003;42565;53.342;-1.534;2023-04-06T11:37:45;0;0;
56688;PMS5003;42565;53.342;-1.534;2023-04-06T11:40:13;1;1;
56688;PMS5003;42565;53.342;-1.534;2023-04-06T11:42:40;1;0;
56688;PMS5003;42565;53.342;-1.534;2023-04-06T11:45:08;1;0;
56688;PMS5003;42565;53.342;-1.534;2023-04-06T11:47:36;1;1;
56688;PMS5003;42565;53.342;-1.534;2023-04-06T11:50:05;0;0;
56688;PMS5003;42565;53.342;-1.534;2023-04-06T11:52:34;2;1;
56688;PMS5003;42565;53.342;-1.534;2023-04-06T11:55:10;2;1;
56688;PMS5003;42565;53.342;-1.534;2023-04-06T11:57:38;3;2;
56688;PMS5003;42565;53.342;-1.534;2023-04-06T12:00:06;1;1;
56688;PMS5003;42565;53.342;-1.534;2023-04-06T12:02:35;2;1;
56688;PMS5003;42565;53.342;-1.534;2023-04-06T12:05:02;2;2;
56688;PMS5003;42565;53.342;-1.534;2023-04-06T12:07:31;1;1;
56688;PMS5003;42565;53.342;-1.534;2023-04-06T12:09:58;1;1;
56688;PMS5003;42565;53.342;-1.534;2023-04-06T12:10:01;1;1;
56688;PMS5003;42565;53.342;-1.534;2023-04-06T12:12:28;2;1;
56688;PMS5003;42565;53.342;-1.534;2023-04-06T12:14:56;1;1;
56688;PMS5003;42565;53.342;-1.534;2023-04-06T12:17:23;0;0;
56688;PMS5003;42565;53.342;-1.534;2023-04-06T12:19:51;1;1;
56688;PMS5003;42565;53.342;-1.534;2023-04-06T12:22:18;1;1;
56688;PMS5003;42565;53.342;-1.534;2023-04-06T12:24:46;1;0;
56688;PMS5003;42565;53.342;-1.534;2023-04-06T12:27:13;2;2;
56688;PMS5003;42565;53.342;-1.534;2023-04-06T12:29:41;2;2;
56688;PMS5003;42565;53.342;-1.534;2023-04-06T12:32:08;1;1;
56688;PMS5003;42565;53.342;-1.534;2023-04-06T12:34:37;1;1;
56688;PMS5003;42565;53.342;-1.534;2023-04-06T12:37:04;3;1;
56688;PMS5003;42565;53.342;-1.534;2023-04-06T12:39:32;2;1;
56688;PMS5003;42565;53.342;-1.534;2023-04-06T12:41:59;0;0;
56688;PMS5003;42565;53.342;-1.534;2023-04-06T12:44:27;0;0;
56688;PMS5003;42565;53.342;-1.534;2023-04-06T12:46:54;2;1;
56688;PMS5003;42565;53.342;-1.534;2023-04-06T12:49:22;3;2;
56688;PMS5003;42565;53.342;-1.534;2023-04-06T12:51:49;3;3;
56688;PMS5003;42565;53.342;-1.534;2023-04-06T12:54:17;2;1;
56688;PMS5003;42565;53.342;-1.534;2023-04-06T12:56:44;3;1;
56688;PMS5003;42565;53.342;-1.534;2023-04-06T12:59:12;3;2;
56688;PMS5003;42565;53.342;-1.534;2023-04-06T13:01:39;1;1;
56688;PMS5003;42565;53.342;-1.534;2023-04-06T13:04:07;1;1;
56688;PMS5003;42565;53.342;-1.534;2023-04-06T13:06:34;1;0;
56688;PMS5003;42565;53.342;-1.534;2023-04-06T13:09:02;0;0;
56688;PMS5003;42565;53.342;-1.534;2023-04-06T13:11:29;1;1;
56688;PMS5003;42565;53.342;-1.534;2023-04-06T13:13:57;1;1;
56688;PMS5003;42565;53.342;-1.534;2023-04-06T13:16:24;1;0;
56688;PMS5003;42565;53.342;-1.534;2023-04-06T13:18:52;1;1;
56688;PMS5003;42565;53.342;-1.534;2023-04-06T13:21:19;2;1;
56688;PMS5003;42565;53.342;-1.534;2023-04-06T13:23:47;1;1;
56688;PMS5003;42565;53.342;-1.534;2023-04-06T13:26:14;0;0;
56688;PMS5003;42565;53.342;-1.534;2023-04-06T13:28:42;2;1;
56688;PMS5003;42565;53.342;-1.534;2023-04-06T13:31:09;1;1;
56688;PMS5003;42565;53.342;-1.534;2023-04-06T13:33:37;1;1;
56688;PMS5003;42565;53.342;-1.534;2023-04-06T13:36:04;3;2;
56688;PMS5003;42565;53.342;-1.534;2023-04-06T13:38:34;1;1;
56688;PMS5003;42565;53.342;-1.534;2023-04-06T13:41:01;1;0;
56688;PMS5003;42565;53.342;-1.534;2023-04-06T13:43:28;3;1;
56688;PMS5003;42565;53.342;-1.534;2023-04-06T13:46:01;0;0;
56688;PMS5003;42565;53.342;-1.534;2023-04-06T13:48:28;2;0;
56688;PMS5003;42565;53.342;-1.534;2023-04-06T13:50:54;1;1;
56688;PMS5003;42565;53.342;-1.534;2023-04-06T13:53:22;0;0;
56688;PMS5003;42565;53.342;-1.534;2023-04-06T13:55:53;0;0;
56688;PMS5003;42565;53.342;-1.534;2023-04-06T13:58:20;3;2;
56688;PMS5003;42565;53.342;-1.534;2023-04-06T14:00:47;1;1;
56688;PMS5003;42565;53.342;-1.534;2023-04-06T14:03:14;0;0;
56688;PMS5003;42565;53.342;-1.534;2023-04-06T14:05:41;0;0;
56688;PMS5003;42565;53.342;-1.534;2023-04-06T14:08:09;1;1;
56688;PMS5003;42565;53.342;-1.534;2023-04-06T14:10:37;2;1;
56688;PMS5003;42565;53.342;-1.534;2023-04-06T14:13:05;2;2;
56688;PMS5003;42565;53.342;-1.534;2023-04-06T14:15:32;1;1;
56688;PMS5003;42565;53.342;-1.534;2023-04-06T14:18:00;0;0;
56688;PMS5003;42565;53.342;-1.534;2023-04-06T14:20:27;1;0;
56688;PMS5003;42565;53.342;-1.534;2023-04-06T14:22:55;1;1;
56688;PMS5003;42565;53.342;-1.534;2023-04-06T14:25:22;2;1;
56688;PMS5003;42565;53.342;-1.534;2023-04-06T14:27:50;1;1;
56688;PMS5003;42565;53.342;-1.534;2023-04-06T14:30:17;2;2;
56688;PMS5003;42565;53.342;-1.534;2023-04-06T14:32:45;0;0;
56688;PMS5003;42565;53.342;-1.534;2023-04-06T14:35:12;1;1;
56688;PMS5003;42565;53.342;-1.534;2023-04-06T14:37:40;1;1;
56688;PMS5003;42565;53.342;-1.534;2023-04-06T14:40:08;0;0;
56688;PMS5003;42565;53.342;-1.534;2023-04-06T14:42:35;1;1;
56688;PMS5003;42565;53.342;-1.534;2023-04-06T14:45:02;0;0;
56688;PMS5003;42565;53.342;-1.534;2023-04-06T14:47:30;1;1;
56688;PMS5003;42565;53.342;-1.534;2023-04-06T14:49:57;0;0;
56688;PMS5003;42565;53.342;-1.534;2023-04-06T14:52:25;2;1;
56688;PMS5003;42565;53.342;-1.534;2023-04-06T14:54:51;1;0;
56688;PMS5003;42565;53.342;-1.534;2023-04-06T14:57:19;0;0;
56688;PMS5003;42565;53.342;-1.534;2023-04-06T14:59:47;0;0;
56688;PMS5003;42565;53.342;-1.534;2023-04-06T15:02:14;2;1;
56688;PMS5003;42565;53.342;-1.534;2023-04-06T15:04:41;1;1;
56688;PMS5003;42565;53.342;-1.534;2023-04-06T15:07:09;0;0;
56688;PMS5003;42565;53.342;-1.534;2023-04-06T15:09:36;0;0;
56688;PMS5003;42565;53.342;-1.534;2023-04-06T15:12:04;1;1;
56688;PMS5003;42565;53.342;-1.534;2023-04-06T15:14:31;1;1;
56688;PMS5003;42565;53.342;-1.534;2023-04-06T15:16:59;1;0;
56688;PMS5003;42565;53.342;-1.534;2023-04-06T15:19:27;0;0;
56688;PMS5003;42565;53.342;-1.534;2023-04-06T15:21:54;0;0;
56688;PMS5003;42565;53.342;-1.534;2023-04-06T15:24:22;1;1;
56688;PMS5003;42565;53.342;-1.534;2023-04-06T15:26:49;0;0;
56688;PMS5003;42565;53.342;-1.534;2023-04-06T15:29:17;0;0;
56688;PMS5003;42565;53.342;-1.534;2023-04-06T15:31:44;1;1;
56688;PMS5003;42565;53.342;-1.534;2023-04-06T15:34:12;0;0;
56688;PMS5003;42565;53.342;-1.534;2023-04-06T15:36:39;0;0;
56688;PMS5003;42565;53.342;-1.534;2023-04-06T15:39:07;0;0;
56688;PMS5003;42565;53.342;-1.534;2023-04-06T15:41:34;0;0;
56688;PMS5003;42565;53.342;-1.534;2023-04-06T15:44:01;0;0;
56688;PMS5003;42565;53.342;-1.534;2023-04-06T15:46:28;0;0;
56688;PMS5003;42565;53.342;-1.534;2023-04-06T15:48:56;1;0;
56688;PMS5003;42565;53.342;-1.534;2023-04-06T15:51:23;0;0;
56688;PMS5003;42565;53.342;-1.534;2023-04-06T15:53:52;0;0;
56688;PMS5003;42565;53.342;-1.534;2023-04-06T15:56:19;0;0;
56688;PMS5003;42565;53.342;-1.534;2023-04-06T15:58:45;0;0;
56688;PMS5003;42565;53.342;-1.534;2023-04-06T16:01:13;0;0;
56688;PMS5003;42565;53.342;-1.534;2023-04-06T16:03:41;1;0;
56688;PMS5003;42565;53.342;-1.534;2023-04-06T16:06:09;2;1;
56688;PMS5003;42565;53.342;-1.534;2023-04-06T16:08:36;0;0;
56688;PMS5003;42565;53.342;-1.534;2023-04-06T16:11:05;1;0;
56688;PMS5003;42565;53.342;-1.534;2023-04-06T16:13:32;0;0;
56688;PMS5003;42565;53.342;-1.534;2023-04-06T16:16:00;0;0;
56688;PMS5003;42565;53.342;-1.534;2023-04-06T16:18:27;2;0;
56688;PMS5003;42565;53.342;-1.534;2023-04-06T16:20:55;1;1;
56688;PMS5003;42565;53.342;-1.534;2023-04-06T16:23:22;1;0;
56688;PMS5003;42565;53.342;-1.534;2023-04-06T16:25:50;0;0;
56688;PMS5003;42565;53.342;-1.534;2023-04-06T16:28:18;1;0;
56688;PMS5003;42565;53.342;-1.534;2023-04-06T16:30:45;0;0;